createdAt,value
2023-05-15T00:00:32.234Z,63.53
2023-05-15T00:01:36.468Z,63.23
2023-05-15T00:02:40.916Z,62.86
2023-05-15T00:03:44.619Z,62.62
2023-05-15T00:04:47.447Z,62.22
2023-05-15T00:05:50.488Z,62.22
2023-05-15T00:06:53.859Z,62.85
2023-05-15T00:07:57.916Z,62.05
2023-05-15T00:09:01.423Z,61.96
2023-05-15T00:10:08.365Z,61.68
2023-05-15T00:11:12.300Z,61.50
2023-05-15T00:12:15.947Z,60.97
2023-05-15T00:13:21.178Z,61.42
2023-05-15T00:14:27.616Z,61.43
2023-05-15T00:15:33.312Z,62.08
2023-05-15T00:16:36.667Z,62.10
2023-05-15T00:17:40.340Z,61.54
2023-05-15T00:18:43.967Z,61.28
2023-05-15T00:19:47.645Z,60.98
2023-05-15T00:20:50.427Z,60.59
2023-05-15T00:21:54.341Z,60.78
2023-05-15T00:22:58.463Z,61.51
2023-05-15T00:24:01.864Z,60.59
2023-05-15T00:25:05.195Z,61.34
2023-05-15T00:26:08.790Z,60.91
2023-05-15T00:27:12.494Z,61.51
2023-05-15T00:28:15.982Z,62.89
2023-05-15T00:29:22.233Z,62.97
2023-05-15T00:30:27.500Z,63.37
2023-05-15T00:31:30.940Z,63.67
2023-05-15T00:32:38.332Z,63.69
2023-05-15T00:33:42.393Z,62.39
2023-05-15T00:34:47.268Z,62.37
2023-05-15T00:35:50.774Z,62.46
2023-05-15T00:36:54.374Z,62.50
2023-05-15T00:37:57.060Z,62.58
2023-05-15T00:39:00.218Z,62.72
2023-05-15T00:40:03.702Z,62.81
2023-05-15T00:41:08.398Z,62.66
2023-05-15T00:42:13.475Z,62.80
2023-05-15T00:43:16.660Z,63.02
2023-05-15T00:44:20.648Z,62.88
2023-05-15T00:45:26.704Z,62.86
2023-05-15T00:46:32.469Z,63.11
2023-05-15T00:47:35.756Z,63.65
2023-05-15T00:48:39.103Z,63.57
2023-05-15T00:49:43.524Z,63.13
2023-05-15T00:50:47.887Z,63.85
2023-05-15T00:51:52.889Z,64.02
2023-05-15T00:52:56.266Z,63.64
2023-05-15T00:53:59.400Z,63.95
2023-05-15T00:55:02.123Z,64.47
2023-05-15T00:56:06.469Z,64.71
2023-05-15T00:57:09.227Z,65.04
2023-05-15T00:58:15.249Z,65.13
2023-05-15T00:59:19.269Z,65.06
2023-05-15T01:00:23.818Z,64.53
2023-05-15T01:01:29.556Z,64.54
2023-05-15T01:02:33.015Z,65.40
2023-05-15T01:03:36.289Z,64.48
2023-05-15T01:04:39.920Z,64.52
2023-05-15T01:05:44.884Z,64.83
2023-05-15T01:06:49.443Z,64.98
2023-05-15T01:08:07.995Z,65.43
2023-05-15T01:09:12.851Z,65.80
2023-05-15T01:10:19.045Z,65.69
2023-05-15T01:11:23.830Z,65.87
2023-05-15T01:12:30.198Z,66.08
2023-05-15T01:13:33.975Z,66.63
2023-05-15T01:14:37.792Z,67.43
2023-05-15T01:15:43.279Z,68.32
2023-05-15T01:16:47.942Z,68.77
2023-05-15T01:17:52.442Z,68.78
2023-05-15T01:18:56.500Z,68.31
2023-05-15T01:20:07.037Z,68.10
2023-05-15T01:21:29.110Z,68.01
2023-05-15T01:22:53.505Z,68.16
2023-05-15T01:24:19.048Z,68.72
2023-05-15T01:25:40.832Z,69.13
2023-05-15T01:27:01.675Z,69.41
2023-05-15T01:28:08.057Z,69.28
2023-05-15T01:29:22.252Z,69.41
2023-05-15T01:30:33.814Z,70.23
2023-05-15T01:31:38.631Z,70.71
2023-05-15T01:32:49.195Z,70.62
2023-05-15T01:33:54.450Z,70.63
2023-05-15T01:35:13.072Z,70.71
2023-05-15T01:36:27.370Z,70.92
2023-05-15T01:37:32.652Z,71.98
2023-05-15T01:38:49.896Z,71.71
2023-05-15T01:39:55.451Z,72.77
2023-05-15T01:41:16.394Z,72.63
2023-05-15T01:42:23.646Z,73.11
2023-05-15T01:43:28.908Z,73.59
2023-05-15T01:44:35.036Z,72.96
2023-05-15T01:45:39.991Z,72.66
2023-05-15T01:46:46.622Z,73.55
2023-05-15T01:47:50.744Z,72.88
2023-05-15T01:48:56.879Z,73.73
2023-05-15T01:50:02.710Z,73.71
2023-05-15T01:51:08.608Z,73.92
2023-05-15T01:52:19.520Z,74.33
2023-05-15T01:53:22.767Z,74.15
2023-05-15T01:54:28.509Z,73.97
2023-05-15T01:55:33.065Z,73.65
2023-05-15T01:56:38.523Z,73.73
2023-05-15T01:57:42.996Z,73.69
2023-05-15T01:58:48.996Z,73.69
2023-05-15T01:59:53.876Z,74.29
2023-05-15T02:01:00.655Z,73.80
2023-05-15T02:02:06.237Z,74.38
2023-05-15T02:03:11.339Z,75.30
2023-05-15T02:04:18.425Z,75.56
2023-05-15T02:05:25.123Z,75.90
2023-05-15T02:06:32.295Z,76.11
2023-05-15T02:07:36.608Z,76.52
2023-05-15T02:08:39.804Z,76.32
2023-05-15T02:09:44.950Z,76.10
2023-05-15T02:10:49.606Z,76.05
2023-05-15T02:11:54.992Z,75.75
2023-05-15T02:13:01.330Z,75.80
2023-05-15T02:14:09.083Z,75.45
2023-05-15T02:15:12.705Z,74.86
2023-05-15T02:16:17.102Z,74.41
2023-05-15T02:17:21.530Z,74.19
2023-05-15T02:18:26.268Z,73.80
2023-05-15T02:19:30.082Z,72.80
2023-05-15T02:20:33.212Z,72.53
2023-05-15T02:21:36.675Z,72.99
2023-05-15T02:22:40.165Z,72.25
2023-05-15T02:23:45.384Z,72.77
2023-05-15T02:24:48.590Z,71.96
2023-05-15T02:26:11.465Z,71.49
2023-05-15T02:27:29.293Z,71.12
2023-05-15T02:28:34.569Z,70.75
2023-05-15T02:29:38.694Z,70.51
2023-05-15T02:30:45.860Z,70.89
2023-05-15T02:31:50.073Z,70.16
2023-05-15T02:33:01.291Z,69.45
2023-05-15T02:34:15.805Z,68.90
2023-05-15T02:35:37.483Z,68.45
2023-05-15T02:36:41.510Z,69.32
2023-05-15T02:37:48.350Z,68.95
2023-05-15T02:38:54.797Z,68.39
2023-05-15T02:40:00.405Z,68.64
2023-05-15T02:41:05.731Z,68.58
2023-05-15T02:42:11.257Z,67.97
2023-05-15T02:43:17.008Z,67.74
2023-05-15T02:44:20.117Z,67.37
2023-05-15T02:45:28.041Z,67.02
2023-05-15T02:46:33.256Z,66.66
2023-05-15T02:47:37.035Z,66.04
2023-05-15T02:48:40.724Z,66.39
2023-05-15T02:49:44.780Z,66.62
2023-05-15T02:50:50.781Z,66.34
2023-05-15T02:51:54.278Z,66.16
2023-05-15T02:53:08.352Z,65.37
2023-05-15T02:54:12.264Z,64.68
2023-05-15T02:55:16.492Z,63.57
2023-05-15T02:56:21.269Z,63.93
2023-05-15T02:57:25.284Z,63.92
2023-05-15T02:58:33.086Z,64.13
2023-05-15T02:59:36.890Z,63.80
2023-05-15T03:00:40.387Z,63.35
2023-05-15T03:01:43.393Z,63.18
2023-05-15T03:02:47.248Z,62.48
2023-05-15T03:03:50.807Z,62.51
2023-05-15T03:04:54.731Z,62.28
2023-05-15T03:06:02.235Z,61.73
2023-05-15T03:07:05.707Z,61.21
2023-05-15T03:08:09.212Z,60.65
2023-05-15T03:09:14.959Z,60.37
2023-05-15T03:10:18.057Z,60.52
2023-05-15T03:11:22.525Z,61.40
2023-05-15T03:12:26.568Z,60.48
2023-05-15T03:13:30.286Z,59.74
2023-05-15T03:14:33.737Z,59.46
2023-05-15T03:15:37.495Z,59.72
2023-05-15T03:16:42.046Z,60.07
2023-05-15T03:17:46.507Z,60.38
2023-05-15T03:18:49.188Z,60.35
2023-05-15T03:19:52.900Z,60.61
2023-05-15T03:20:56.391Z,61.18
2023-05-15T03:22:03.597Z,61.29
2023-05-15T03:23:07.267Z,61.08
2023-05-15T03:24:09.725Z,61.24
2023-05-15T03:25:13.333Z,60.94
2023-05-15T03:26:15.895Z,60.72
2023-05-15T03:27:19.104Z,61.19
2023-05-15T03:28:22.745Z,61.19
2023-05-15T03:29:26.317Z,60.68
2023-05-15T03:30:29.921Z,60.60
2023-05-15T03:31:33.546Z,60.56
2023-05-15T03:32:37.153Z,60.18
2023-05-15T03:33:40.535Z,59.73
2023-05-15T03:34:44.041Z,59.40
2023-05-15T03:35:47.651Z,59.38
2023-05-15T03:36:51.565Z,59.27
2023-05-15T03:37:54.969Z,58.93
2023-05-15T03:39:01.026Z,59.05
2023-05-15T03:40:05.745Z,58.53
2023-05-15T03:41:10.129Z,57.83
2023-05-15T03:42:13.486Z,58.13
2023-05-15T03:43:17.181Z,58.18
2023-05-15T03:44:19.876Z,57.26
2023-05-15T03:45:23.168Z,56.96
2023-05-15T03:46:27.743Z,56.87
2023-05-15T03:47:31.133Z,58.36
2023-05-15T03:48:34.619Z,58.70
2023-05-15T03:49:39.841Z,58.36
2023-05-15T03:50:47.818Z,58.08
2023-05-15T03:51:52.760Z,58.32
2023-05-15T03:52:56.490Z,57.07
2023-05-15T03:54:00.292Z,58.48
2023-05-15T03:55:03.701Z,57.61
2023-05-15T03:56:07.188Z,57.27
2023-05-15T03:57:11.019Z,56.83
2023-05-15T03:58:14.300Z,57.00
2023-05-15T03:59:16.983Z,57.13
2023-05-15T04:00:19.318Z,57.57
2023-05-15T04:01:24.312Z,58.19
2023-05-15T04:02:28.000Z,57.38
2023-05-15T04:03:31.597Z,57.47
2023-05-15T04:04:35.235Z,57.19
2023-05-15T04:05:38.665Z,56.54
2023-05-15T04:06:41.930Z,55.89
2023-05-15T04:07:45.227Z,55.10
2023-05-15T04:08:48.849Z,55.48
2023-05-15T04:09:54.452Z,54.38
2023-05-15T04:10:59.071Z,51.51
2023-05-15T04:12:03.226Z,48.78
2023-05-15T04:13:06.561Z,48.26
2023-05-15T04:14:10.742Z,48.08
2023-05-15T04:15:15.347Z,47.88
2023-05-15T04:16:18.311Z,49.64
2023-05-15T04:17:22.436Z,49.98
2023-05-15T04:18:26.694Z,50.83
2023-05-15T04:19:30.041Z,50.45
2023-05-15T04:20:34.496Z,49.97
2023-05-15T04:21:37.644Z,49.23
2023-05-15T04:22:42.228Z,47.50
2023-05-15T04:23:45.143Z,44.89
2023-05-15T04:24:50.569Z,43.24
2023-05-15T04:25:54.310Z,42.42
2023-05-15T04:26:56.733Z,40.90
2023-05-15T04:27:59.439Z,37.86
2023-05-15T04:29:04.862Z,36.12
2023-05-15T04:30:12.668Z,34.45
2023-05-15T04:31:16.228Z,34.08
2023-05-15T04:32:21.792Z,33.08
2023-05-15T04:33:25.837Z,32.29
2023-05-15T04:34:30.295Z,31.68
2023-05-15T04:35:33.905Z,31.06
2023-05-15T04:36:39.537Z,30.92
2023-05-15T04:37:46.040Z,30.29
2023-05-15T04:38:49.641Z,30.17
2023-05-15T04:39:53.250Z,29.77
2023-05-15T04:40:57.413Z,29.66
2023-05-15T04:42:00.258Z,28.85
2023-05-15T04:43:05.600Z,28.41
2023-05-15T04:44:09.455Z,28.08
2023-05-15T04:45:13.899Z,27.98
2023-05-15T04:46:18.481Z,28.18
2023-05-15T04:47:22.093Z,28.38
2023-05-15T04:48:26.087Z,28.20
2023-05-15T04:49:29.494Z,27.55
2023-05-15T04:50:33.625Z,26.66
2023-05-15T04:51:35.981Z,27.22
2023-05-15T04:52:39.709Z,27.12
2023-05-15T04:53:41.948Z,26.97
2023-05-15T04:54:45.295Z,27.08
2023-05-15T04:55:51.584Z,26.76
2023-05-15T04:56:56.734Z,26.67
2023-05-15T04:57:59.926Z,26.58
2023-05-15T04:59:03.314Z,26.17
2023-05-15T05:00:12.847Z,25.60
2023-05-15T05:01:16.541Z,25.10
2023-05-15T05:02:23.324Z,25.42
2023-05-15T05:03:27.588Z,25.81
2023-05-15T05:04:32.248Z,25.07
2023-05-15T05:05:35.753Z,24.52
2023-05-15T05:06:39.364Z,24.54
2023-05-15T05:07:44.349Z,24.49
2023-05-15T05:08:47.618Z,24.02
2023-05-15T05:09:51.157Z,23.53
2023-05-15T05:10:58.023Z,23.02
2023-05-15T05:12:01.587Z,22.82
2023-05-15T05:13:06.351Z,22.90
2023-05-15T05:14:10.794Z,22.67
2023-05-15T05:15:14.405Z,22.21
2023-05-15T05:16:18.924Z,22.51
2023-05-15T05:17:22.409Z,22.25
2023-05-15T05:18:25.854Z,21.17
2023-05-15T05:19:29.354Z,20.50
2023-05-15T05:20:32.459Z,20.83
2023-05-15T05:21:35.849Z,19.63
2023-05-15T05:22:41.233Z,19.68
2023-05-15T05:23:49.012Z,19.50
2023-05-15T05:24:54.190Z,21.42
2023-05-15T05:25:57.717Z,21.71
2023-05-15T05:26:59.949Z,21.77
2023-05-15T05:28:03.245Z,21.97
2023-05-15T05:29:07.502Z,21.70
2023-05-15T05:30:10.843Z,21.50
2023-05-15T05:31:15.664Z,21.29
2023-05-15T05:32:21.639Z,21.46
2023-05-15T05:33:25.477Z,21.06
2023-05-15T05:34:28.998Z,21.18
2023-05-15T05:35:32.799Z,21.18
2023-05-15T05:36:36.503Z,21.52
2023-05-15T05:37:41.278Z,21.49
2023-05-15T05:38:45.290Z,21.11
2023-05-15T05:39:49.847Z,20.61
2023-05-15T05:40:53.664Z,20.30
2023-05-15T05:41:56.948Z,20.83
2023-05-15T05:43:01.654Z,20.76
2023-05-15T05:44:05.327Z,20.46
2023-05-15T05:45:09.280Z,19.97
2023-05-15T05:46:11.720Z,20.03
2023-05-15T05:47:15.480Z,19.17
2023-05-15T05:48:17.882Z,18.75
2023-05-15T05:49:20.340Z,19.45
2023-05-15T05:50:24.170Z,18.99
2023-05-15T05:51:26.826Z,18.73
2023-05-15T05:52:31.912Z,18.41
2023-05-15T05:53:34.254Z,18.09
2023-05-15T05:54:40.794Z,18.01
2023-05-15T05:55:43.880Z,17.77
2023-05-15T05:56:47.411Z,18.02
2023-05-15T05:57:52.140Z,18.59
2023-05-15T05:58:57.316Z,18.12
2023-05-15T06:00:00.208Z,18.34
2023-05-15T06:01:03.799Z,18.49
2023-05-15T06:02:07.234Z,19.47
2023-05-15T06:03:11.211Z,19.90
2023-05-15T06:04:18.124Z,19.10
2023-05-15T06:05:20.756Z,19.93
2023-05-15T06:06:25.108Z,20.75
2023-05-15T06:07:29.954Z,21.13
2023-05-15T06:08:34.715Z,20.11
2023-05-15T06:09:38.337Z,19.22
2023-05-15T06:10:44.213Z,18.76
2023-05-15T06:11:48.261Z,18.40
2023-05-15T06:12:50.531Z,19.04
2023-05-15T06:13:54.029Z,19.74
2023-05-15T06:14:57.253Z,19.16
2023-05-15T06:16:02.163Z,18.74
2023-05-15T06:17:04.795Z,17.89
2023-05-15T06:18:08.302Z,17.66
2023-05-15T06:19:11.954Z,18.53
2023-05-15T06:20:14.854Z,17.33
2023-05-15T06:21:18.442Z,17.17
2023-05-15T06:22:22.676Z,16.51
2023-05-15T06:23:25.365Z,16.30
2023-05-15T06:24:31.835Z,14.92
2023-05-15T06:25:36.977Z,15.62
2023-05-15T06:26:40.138Z,15.02
2023-05-15T06:27:46.055Z,15.01
2023-05-15T06:28:49.342Z,14.09
2023-05-15T06:29:52.217Z,14.03
2023-05-15T06:30:55.564Z,14.31
2023-05-15T06:31:59.421Z,14.04
2023-05-15T06:33:04.785Z,13.98
2023-05-15T06:34:08.234Z,14.25
2023-05-15T06:35:10.576Z,14.34
2023-05-15T06:36:13.674Z,14.38
2023-05-15T06:37:16.992Z,14.35
2023-05-15T06:38:20.477Z,14.69
2023-05-15T06:39:24.088Z,14.55
2023-05-15T06:40:28.102Z,14.74
2023-05-15T06:41:31.879Z,14.91
2023-05-15T06:42:36.691Z,15.00
2023-05-15T06:43:40.084Z,14.52
2023-05-15T06:44:43.379Z,14.00
2023-05-15T06:45:46.683Z,13.49
2023-05-15T06:46:49.246Z,13.11
2023-05-15T06:47:54.892Z,13.12
2023-05-15T06:48:58.454Z,13.25
2023-05-15T06:50:01.828Z,13.13
2023-05-15T06:51:06.990Z,13.98
2023-05-15T06:52:11.254Z,13.85
2023-05-15T06:53:14.876Z,13.99
2023-05-15T06:54:18.897Z,14.80
2023-05-15T06:55:22.092Z,15.25
2023-05-15T06:56:25.489Z,15.52
2023-05-15T06:57:27.754Z,15.16
2023-05-15T06:58:31.167Z,14.90
2023-05-15T06:59:36.258Z,14.86
2023-05-15T07:00:39.555Z,15.43
2023-05-15T07:01:43.042Z,15.31
2023-05-15T07:02:46.656Z,15.80
2023-05-15T07:03:48.933Z,15.77
2023-05-15T07:04:51.921Z,15.83
2023-05-15T07:05:54.531Z,15.43
2023-05-15T07:06:57.908Z,15.44
2023-05-15T07:08:02.365Z,16.17
2023-05-15T07:09:04.952Z,16.03
2023-05-15T07:10:10.891Z,16.44
2023-05-15T07:11:14.354Z,16.60
2023-05-15T07:12:17.649Z,16.05
2023-05-15T07:13:23.136Z,15.17
2023-05-15T07:14:29.698Z,15.14
2023-05-15T07:15:33.496Z,15.32
2023-05-15T07:16:35.954Z,15.45
2023-05-15T07:17:39.417Z,15.24
2023-05-15T07:18:43.378Z,15.46
2023-05-15T07:19:47.820Z,14.63
2023-05-15T07:20:51.224Z,15.01
2023-05-15T07:21:54.614Z,14.73
2023-05-15T07:22:57.794Z,15.14
2023-05-15T07:24:00.175Z,15.60
2023-05-15T07:25:03.987Z,15.24
2023-05-15T07:26:08.825Z,15.23
2023-05-15T07:27:14.025Z,15.22
2023-05-15T07:28:19.551Z,14.86
2023-05-15T07:29:23.123Z,14.51
2023-05-15T07:30:26.664Z,14.06
2023-05-15T07:31:31.003Z,13.56
2023-05-15T07:32:33.699Z,13.55
2023-05-15T07:33:39.962Z,14.09
2023-05-15T07:34:43.462Z,13.56
2023-05-15T07:35:46.884Z,13.53
2023-05-15T07:36:50.175Z,13.56
2023-05-15T07:37:54.922Z,14.27
2023-05-15T07:39:00.309Z,13.90
2023-05-15T07:40:03.910Z,14.90
2023-05-15T07:41:07.528Z,14.83
2023-05-15T07:42:10.329Z,13.99
2023-05-15T07:43:12.585Z,14.23
2023-05-15T07:44:16.886Z,14.61
2023-05-15T07:45:20.564Z,15.27
2023-05-15T07:46:23.040Z,15.47
2023-05-15T07:47:26.589Z,14.25
2023-05-15T07:48:30.912Z,14.28
2023-05-15T07:49:34.314Z,14.42
2023-05-15T07:50:37.708Z,14.94
2023-05-15T07:51:41.365Z,14.63
2023-05-15T07:52:45.244Z,15.04
2023-05-15T07:53:48.542Z,16.06
2023-05-15T07:54:55.607Z,14.94
2023-05-15T07:55:58.760Z,14.38
2023-05-15T07:57:01.250Z,13.49
2023-05-15T07:58:05.771Z,14.22
2023-05-15T07:59:10.258Z,14.78
2023-05-15T08:00:14.584Z,14.65
2023-05-15T08:01:18.228Z,14.88
2023-05-15T08:02:20.984Z,14.98
2023-05-15T08:03:24.414Z,14.94
2023-05-15T08:04:26.896Z,15.33
2023-05-15T08:05:30.323Z,16.29
2023-05-15T08:06:33.950Z,16.72
2023-05-15T08:07:37.558Z,15.75
2023-05-15T08:08:41.036Z,15.39
2023-05-15T08:09:45.608Z,15.41
2023-05-15T08:10:48.931Z,15.50
2023-05-15T08:11:51.215Z,16.63
2023-05-15T08:12:54.547Z,16.09
2023-05-15T08:13:58.107Z,16.35
2023-05-15T08:15:01.967Z,16.45
2023-05-15T08:16:05.606Z,16.41
2023-05-15T08:17:08.980Z,16.90
2023-05-15T08:18:11.345Z,17.17
2023-05-15T08:19:17.154Z,16.36
2023-05-15T08:20:20.344Z,15.66
2023-05-15T08:21:22.590Z,16.03
2023-05-15T08:22:26.416Z,17.22
2023-05-15T08:23:29.753Z,15.52
2023-05-15T08:24:33.422Z,15.69
2023-05-15T08:25:36.156Z,15.57
2023-05-15T08:26:42.264Z,15.30
2023-05-15T08:27:45.709Z,15.78
2023-05-15T08:28:48.070Z,15.82
2023-05-15T08:29:51.458Z,16.69
2023-05-15T08:30:57.151Z,16.50
2023-05-15T08:32:03.210Z,16.38
2023-05-15T08:33:06.860Z,16.12
2023-05-15T08:34:13.447Z,15.80
2023-05-15T08:35:17.976Z,15.01
2023-05-15T08:36:21.385Z,16.30
2023-05-15T08:37:24.758Z,16.46
2023-05-15T08:38:28.066Z,16.68
2023-05-15T08:39:30.428Z,16.09
2023-05-15T08:40:39.009Z,16.54
2023-05-15T08:41:50.493Z,16.09
2023-05-15T08:42:56.271Z,16.35
2023-05-15T08:44:02.862Z,16.51
2023-05-15T08:45:09.235Z,16.04
2023-05-15T08:46:13.098Z,16.92
2023-05-15T08:47:17.153Z,16.87
2023-05-15T08:48:26.053Z,16.52
2023-05-15T08:49:32.472Z,16.36
2023-05-15T08:50:38.164Z,15.43
2023-05-15T08:51:43.130Z,16.01
2023-05-15T08:52:48.827Z,15.00
2023-05-15T08:53:53.181Z,15.12
2023-05-15T08:54:56.790Z,15.74
2023-05-15T08:56:02.170Z,15.18
2023-05-15T08:57:06.512Z,15.18
2023-05-15T08:58:08.871Z,16.08
2023-05-15T08:59:17.924Z,15.32
2023-05-15T09:00:22.991Z,16.03
2023-05-15T09:01:27.877Z,14.95
2023-05-15T09:02:32.206Z,16.07
2023-05-15T09:03:35.688Z,15.88
2023-05-15T09:04:38.975Z,15.81
2023-05-15T09:05:41.330Z,14.98
2023-05-15T09:06:46.513Z,14.84
2023-05-15T09:07:51.690Z,15.26
2023-05-15T09:08:56.045Z,15.62
2023-05-15T09:10:00.059Z,15.63
2023-05-15T09:11:03.985Z,15.38
2023-05-15T09:12:08.526Z,14.99
2023-05-15T09:13:13.084Z,15.63
2023-05-15T09:14:17.322Z,14.98
2023-05-15T09:15:23.165Z,15.42
2023-05-15T09:16:27.598Z,15.69
2023-05-15T09:17:31.452Z,15.02
2023-05-15T09:18:35.014Z,14.78
2023-05-15T09:19:43.045Z,15.18
2023-05-15T09:20:46.332Z,15.71
2023-05-15T09:21:50.108Z,15.75
2023-05-15T09:22:53.824Z,15.56
2023-05-15T09:24:11.660Z,15.18
2023-05-15T09:25:17.538Z,15.35
2023-05-15T09:26:21.869Z,16.09
2023-05-15T09:27:25.801Z,16.49
2023-05-15T09:28:29.774Z,16.04
2023-05-15T09:29:34.056Z,16.55
2023-05-15T09:30:41.867Z,16.14
2023-05-15T09:31:47.158Z,16.29
2023-05-15T09:32:52.239Z,14.95
2023-05-15T09:33:57.998Z,15.41
2023-05-15T09:35:01.287Z,16.34
2023-05-15T09:36:05.737Z,15.32
2023-05-15T09:37:10.820Z,15.49
2023-05-15T09:38:17.346Z,15.64
2023-05-15T09:39:25.679Z,15.40
2023-05-15T09:40:29.457Z,15.33
2023-05-15T09:41:32.876Z,15.75
2023-05-15T09:42:38.826Z,14.89
2023-05-15T09:43:42.066Z,14.74
2023-05-15T09:44:47.105Z,15.51
2023-05-15T09:45:51.081Z,15.04
2023-05-15T09:46:53.603Z,14.61
2023-05-15T09:47:58.063Z,14.98
2023-05-15T09:49:08.592Z,14.64
2023-05-15T09:50:11.374Z,16.11
2023-05-15T09:51:22.199Z,15.41
2023-05-15T09:52:28.188Z,15.42
2023-05-15T09:53:33.896Z,15.36
2023-05-15T09:54:38.129Z,15.59
2023-05-15T09:55:42.155Z,14.99
2023-05-15T09:56:45.776Z,16.23
2023-05-15T09:57:50.722Z,16.01
2023-05-15T09:58:57.654Z,16.27
2023-05-15T10:00:04.024Z,16.19
2023-05-15T10:01:11.664Z,15.96
2023-05-15T10:02:16.856Z,15.73
2023-05-15T10:03:20.274Z,16.37
2023-05-15T10:04:24.414Z,15.68
2023-05-15T10:05:42.043Z,15.92
2023-05-15T10:06:40.619Z,16.33
2023-05-15T10:07:44.859Z,16.88
2023-05-15T10:08:52.951Z,16.78
2023-05-15T10:09:56.528Z,16.65
2023-05-15T10:11:02.574Z,16.58
2023-05-15T10:12:11.316Z,16.29
2023-05-15T10:13:15.224Z,17.70
2023-05-15T10:14:19.340Z,16.80
2023-05-15T10:15:23.421Z,17.17
2023-05-15T10:16:28.280Z,17.34
2023-05-15T10:17:33.179Z,17.88
2023-05-15T10:18:38.873Z,18.63
2023-05-15T10:19:56.657Z,17.97
2023-05-15T10:20:51.477Z,17.68
2023-05-15T10:21:58.596Z,18.01
2023-05-15T10:23:05.868Z,17.55
2023-05-15T10:24:09.677Z,19.19
2023-05-15T10:25:23.728Z,18.88
2023-05-15T10:26:39.195Z,19.73
2023-05-15T10:27:43.399Z,18.46
2023-05-15T10:28:47.004Z,19.24
2023-05-15T10:29:52.910Z,18.83
2023-05-15T10:30:59.303Z,18.74
2023-05-15T10:32:02.727Z,19.48
2023-05-15T10:33:08.625Z,19.16
2023-05-15T10:34:11.626Z,18.78
2023-05-15T10:35:16.344Z,19.19
2023-05-15T10:36:20.414Z,18.58
2023-05-15T10:38:32.731Z,18.76
2023-05-15T10:39:42.059Z,20.52
2023-05-15T10:40:45.296Z,19.20
2023-05-15T10:41:50.481Z,19.69
2023-05-15T10:42:55.561Z,20.60
2023-05-15T10:44:02.597Z,20.34
2023-05-15T10:45:07.741Z,19.32
2023-05-15T10:46:12.320Z,18.53
2023-05-15T10:47:16.102Z,18.02
2023-05-15T10:48:21.052Z,17.68
2023-05-15T10:49:24.614Z,18.83
2023-05-15T10:50:28.642Z,17.50
2023-05-15T10:51:33.720Z,17.28
2023-05-15T10:52:38.672Z,17.67
2023-05-15T10:53:42.290Z,18.45
2023-05-15T10:54:44.853Z,17.09
2023-05-15T10:55:49.935Z,17.12
2023-05-15T10:56:55.092Z,15.72
2023-05-15T10:57:58.301Z,15.78
2023-05-15T10:59:07.968Z,16.70
2023-05-15T11:00:25.507Z,16.24
2023-05-15T11:01:30.258Z,16.14
2023-05-15T11:02:36.771Z,16.40
2023-05-15T11:03:48.024Z,16.10
2023-05-15T11:04:46.122Z,17.22
2023-05-15T11:06:10.443Z,17.01
2023-05-15T11:07:14.883Z,16.74
2023-05-15T11:08:21.006Z,17.52
2023-05-15T11:09:33.035Z,16.55
2023-05-15T11:10:37.011Z,17.03
2023-05-15T11:11:46.946Z,17.88
2023-05-15T11:12:57.599Z,17.92
2023-05-15T11:14:09.140Z,17.29
2023-05-15T11:15:15.458Z,17.66
2023-05-15T11:16:36.895Z,17.16
2023-05-15T11:17:42.359Z,17.85
2023-05-15T11:18:44.809Z,17.99
2023-05-15T11:19:50.058Z,17.24
2023-05-15T11:20:56.803Z,17.10
2023-05-15T11:22:12.348Z,18.11
2023-05-15T11:23:15.725Z,17.05
2023-05-15T11:24:18.437Z,18.09
2023-05-15T11:25:22.943Z,17.90
2023-05-15T11:26:34.601Z,18.33
2023-05-15T11:27:39.751Z,18.31
2023-05-15T11:28:47.757Z,17.67
2023-05-15T11:30:05.687Z,18.27
2023-05-15T11:31:08.941Z,17.65
2023-05-15T11:32:30.360Z,17.86
2023-05-15T11:33:34.052Z,18.60
2023-05-15T11:34:39.111Z,17.67
2023-05-15T11:35:49.083Z,18.98
2023-05-15T11:36:54.183Z,18.36
2023-05-15T11:37:57.375Z,18.41
2023-05-15T11:39:00.984Z,19.45
2023-05-15T11:40:06.987Z,18.37
2023-05-15T11:41:20.505Z,18.32
2023-05-15T11:42:24.913Z,19.28
2023-05-15T11:44:34.272Z,18.00
2023-05-15T11:45:40.002Z,18.42
2023-05-15T11:46:45.751Z,19.06
2023-05-15T11:47:50.273Z,18.93
2023-05-15T11:48:54.352Z,19.13
2023-05-15T11:49:57.968Z,19.29
2023-05-15T11:51:05.129Z,18.55
2023-05-15T11:52:08.836Z,19.65
2023-05-15T11:53:13.423Z,19.44
2023-05-15T11:54:17.115Z,19.26
2023-05-15T11:55:21.809Z,19.58
2023-05-15T11:56:30.925Z,19.13
2023-05-15T11:57:34.403Z,19.43
2023-05-15T11:58:38.758Z,19.10
2023-05-15T11:59:43.237Z,19.24
2023-05-15T12:00:48.679Z,19.73
2023-05-15T12:01:51.348Z,19.50
2023-05-15T12:02:55.301Z,19.65
2023-05-15T12:03:58.973Z,18.31
2023-05-15T12:05:02.580Z,19.48
2023-05-15T12:06:07.874Z,19.46
2023-05-15T12:07:12.786Z,19.73
2023-05-15T12:08:17.716Z,19.92
2023-05-15T12:09:24.229Z,20.42
2023-05-15T12:10:27.867Z,19.99
2023-05-15T12:11:32.101Z,19.13
2023-05-15T12:12:36.640Z,18.47
2023-05-15T12:13:39.524Z,18.89
2023-05-15T12:14:46.404Z,18.61
2023-05-15T12:15:52.178Z,18.70
2023-05-15T12:16:59.765Z,19.15
2023-05-15T12:18:03.794Z,19.92
2023-05-15T12:19:06.796Z,20.27
2023-05-15T12:20:12.641Z,20.25
2023-05-15T12:21:17.529Z,20.83
2023-05-15T12:22:21.502Z,19.92
2023-05-15T12:23:28.943Z,19.62
2023-05-15T12:24:32.384Z,19.84
2023-05-15T12:25:36.672Z,20.60
2023-05-15T12:26:40.356Z,20.43
2023-05-15T12:27:44.302Z,19.76
2023-05-15T12:28:46.974Z,19.55
2023-05-15T12:29:51.579Z,20.14
2023-05-15T12:30:56.978Z,20.19
2023-05-15T12:32:00.777Z,19.78
2023-05-15T12:33:05.771Z,20.79
2023-05-15T12:34:10.076Z,19.83
2023-05-15T12:35:13.901Z,19.90
2023-05-15T12:36:20.397Z,20.10
2023-05-15T12:37:24.705Z,19.70
2023-05-15T12:38:28.327Z,20.18
2023-05-15T12:39:31.967Z,20.20
2023-05-15T12:40:37.194Z,20.16
2023-05-15T12:41:40.728Z,20.35
2023-05-15T12:42:44.438Z,19.97
2023-05-15T12:43:50.783Z,20.68
2023-05-15T12:44:57.622Z,21.21
2023-05-15T12:46:01.062Z,20.31
2023-05-15T12:47:04.109Z,19.76
2023-05-15T12:48:08.687Z,19.90
2023-05-15T12:49:12.544Z,21.49
2023-05-15T12:50:16.921Z,20.89
2023-05-15T12:51:23.454Z,21.12
2023-05-15T12:52:30.198Z,21.09
2023-05-15T12:53:36.051Z,20.91
2023-05-15T12:54:42.848Z,22.07
2023-05-15T12:55:46.747Z,20.99
2023-05-15T12:56:50.273Z,21.48
2023-05-15T12:57:55.548Z,21.28
2023-05-15T12:59:01.353Z,21.68
2023-05-15T13:00:06.082Z,21.91
2023-05-15T13:01:08.478Z,21.18
2023-05-15T13:02:14.114Z,21.59
2023-05-15T13:03:20.698Z,20.92
2023-05-15T13:04:24.042Z,21.61
2023-05-15T13:05:28.236Z,22.47
2023-05-15T13:06:42.279Z,22.13
2023-05-15T13:07:38.895Z,21.46
2023-05-15T13:08:42.579Z,22.17
2023-05-15T13:09:48.207Z,21.95
2023-05-15T13:11:02.413Z,21.88
2023-05-15T13:12:06.672Z,21.66
2023-05-15T13:13:10.008Z,21.88
2023-05-15T13:14:17.337Z,22.50
2023-05-15T13:15:28.498Z,22.56
2023-05-15T13:16:32.554Z,21.49
2023-05-15T13:17:36.267Z,21.47
2023-05-15T13:18:40.687Z,21.50
2023-05-15T13:19:43.917Z,20.84
2023-05-15T13:20:48.413Z,20.79
2023-05-15T13:21:51.593Z,20.82
2023-05-15T13:22:54.874Z,20.46
2023-05-15T13:23:59.899Z,20.43
2023-05-15T13:25:08.445Z,21.20
2023-05-15T13:26:12.317Z,21.31
2023-05-15T13:27:17.485Z,21.08
2023-05-15T13:28:21.939Z,21.74
2023-05-15T13:29:29.303Z,21.32
2023-05-15T13:30:36.158Z,21.70
2023-05-15T13:31:39.815Z,22.19
2023-05-15T13:32:43.296Z,21.83
2023-05-15T13:33:47.025Z,22.21
2023-05-15T13:34:50.270Z,22.18
2023-05-15T13:35:54.397Z,21.65
2023-05-15T13:36:57.595Z,22.76
2023-05-15T13:38:01.109Z,22.71
2023-05-15T13:39:04.927Z,21.87
2023-05-15T13:40:12.511Z,21.83
2023-05-15T13:41:16.325Z,21.67
2023-05-15T13:42:20.044Z,21.34
2023-05-15T13:43:24.558Z,21.15
2023-05-15T13:44:31.172Z,21.51
2023-05-15T13:45:34.837Z,21.42
2023-05-15T13:46:37.685Z,21.56
2023-05-15T13:47:41.097Z,21.54
2023-05-15T13:48:43.494Z,22.32
2023-05-15T13:49:46.920Z,21.20
2023-05-15T13:50:49.165Z,20.42
2023-05-15T13:51:51.489Z,21.13
2023-05-15T13:52:57.533Z,21.20
2023-05-15T13:54:02.188Z,20.62
2023-05-15T13:55:07.533Z,21.50
2023-05-15T13:56:11.175Z,22.01
2023-05-15T13:57:15.787Z,21.01
2023-05-15T13:58:18.467Z,22.36
2023-05-15T13:59:21.980Z,21.40